createdAt,value
2023-01-30T00:01:29.011Z,17.08
2023-01-30T00:03:56.433Z,15.95
2023-01-30T00:06:24.112Z,17.40
2023-01-30T00:08:51.390Z,15.43
2023-01-30T00:11:20.058Z,17.33
2023-01-30T00:13:49.254Z,18.13
2023-01-30T00:16:16.850Z,14.30
2023-01-30T00:18:44.741Z,14.93
2023-01-30T00:21:13.790Z,15.85
2023-01-30T00:23:40.898Z,16.05
2023-01-30T00:26:08.166Z,15.10
2023-01-30T00:28:35.410Z,14.73
2023-01-30T00:31:04.211Z,16.67
2023-01-30T00:33:30.993Z,17.25
2023-01-30T00:35:58.456Z,15.80
2023-01-30T00:38:25.886Z,14.38
2023-01-30T00:40:53.264Z,16.70
2023-01-30T00:43:39.847Z,17.15
2023-01-30T00:46:50.366Z,13.85
2023-01-30T00:49:17.698Z,14.52
2023-01-30T00:51:44.921Z,17.63
2023-01-30T00:54:13.542Z,15.20
2023-01-30T00:56:40.727Z,16.13
2023-01-30T00:59:07.963Z,12.50
2023-01-30T01:01:35.281Z,15.10
2023-01-30T01:04:02.609Z,17.08
2023-01-30T01:06:29.818Z,13.63
2023-01-30T01:08:56.702Z,13.65
2023-01-30T01:11:26.920Z,15.88
2023-01-30T01:14:00.709Z,16.50
2023-01-30T01:16:29.247Z,16.27
2023-01-30T01:18:58.550Z,15.95
2023-01-30T01:21:25.759Z,15.10
2023-01-30T01:23:55.742Z,12.95
2023-01-30T01:26:23.014Z,13.98
2023-01-30T01:28:49.907Z,17.52
2023-01-30T01:31:17.680Z,14.88
2023-01-30T01:33:45.136Z,13.55
2023-01-30T01:36:16.281Z,13.68
2023-01-30T01:38:49.749Z,16.05
2023-01-30T01:41:18.414Z,15.95
2023-01-30T01:44:12.913Z,14.65
2023-01-30T01:46:58.515Z,12.85
2023-01-30T01:49:32.488Z,17.10
2023-01-30T01:52:17.106Z,15.82
2023-01-30T01:54:52.304Z,15.55
2023-01-30T01:57:31.830Z,13.15
2023-01-30T02:00:11.639Z,17.52
2023-01-30T02:02:49.486Z,16.40
2023-01-30T02:05:19.646Z,14.70
2023-01-30T02:08:00.641Z,15.52
2023-01-30T02:10:40.102Z,17.52
2023-01-30T02:13:08.966Z,14.40
2023-01-30T02:15:36.246Z,16.63
2023-01-30T02:18:04.011Z,17.55
2023-01-30T02:20:48.430Z,15.65
2023-01-30T02:23:52.667Z,17.95
2023-01-30T02:26:38.385Z,16.02
2023-01-30T02:29:32.165Z,14.10
2023-01-30T02:32:10.894Z,14.98
2023-01-30T02:35:03.463Z,13.85
2023-01-30T02:38:02.532Z,15.90
2023-01-30T02:40:39.775Z,14.23
2023-01-30T02:43:22.417Z,14.25
2023-01-30T02:46:04.697Z,13.50
2023-01-30T02:48:54.311Z,14.65
2023-01-30T02:51:26.295Z,15.23
2023-01-30T02:53:54.433Z,18.02
2023-01-30T02:56:21.963Z,16.02
2023-01-30T02:59:07.018Z,15.00
2023-01-30T03:01:56.694Z,13.40
2023-01-30T03:04:48.172Z,16.27
2023-01-30T03:07:18.072Z,16.15
2023-01-30T03:10:09.672Z,16.45
2023-01-30T03:13:05.387Z,15.65
2023-01-30T03:15:38.652Z,16.85
2023-01-30T03:18:07.004Z,13.43
2023-01-30T03:20:38.619Z,16.45
2023-01-30T03:23:06.329Z,13.90
2023-01-30T03:25:35.837Z,15.90
2023-01-30T03:28:03.997Z,16.05
2023-01-30T03:30:30.964Z,16.80
2023-01-30T03:33:06.342Z,16.40
2023-01-30T03:35:36.401Z,18.88
2023-01-30T03:38:03.727Z,17.48
2023-01-30T03:40:30.975Z,20.60
2023-01-30T03:42:59.204Z,14.52
2023-01-30T03:45:26.862Z,16.48
2023-01-30T03:47:54.195Z,16.10
2023-01-30T03:50:21.793Z,17.20
2023-01-30T03:52:49.183Z,19.00
2023-01-30T03:55:20.059Z,18.27
2023-01-30T03:57:47.377Z,18.58
2023-01-30T04:00:15.527Z,17.95
2023-01-30T04:02:49.096Z,16.50
2023-01-30T04:05:18.493Z,15.82
2023-01-30T04:07:51.665Z,18.92
2023-01-30T04:10:20.071Z,15.02
2023-01-30T04:12:47.639Z,18.52
2023-01-30T04:15:14.991Z,17.10
2023-01-30T04:18:00.843Z,17.08
2023-01-30T04:20:30.660Z,15.55
2023-01-30T04:22:58.109Z,19.95
2023-01-30T04:25:27.139Z,18.88
2023-01-30T04:27:54.410Z,16.73
2023-01-30T04:30:25.404Z,15.75
2023-01-30T04:32:59.511Z,18.05
2023-01-30T04:35:26.801Z,16.98
2023-01-30T04:37:54.177Z,16.95
2023-01-30T04:40:21.404Z,19.70
2023-01-30T04:42:48.696Z,21.73
2023-01-30T04:45:35.850Z,19.02
2023-01-30T04:48:03.445Z,16.50
2023-01-30T04:50:33.023Z,20.92
2023-01-30T04:53:00.815Z,19.50
2023-01-30T04:55:28.873Z,21.85
2023-01-30T04:57:56.218Z,19.98
2023-01-30T05:00:23.670Z,19.23
2023-01-30T05:02:56.138Z,16.75
2023-01-30T05:05:24.214Z,18.65
2023-01-30T05:07:51.530Z,15.23
2023-01-30T05:10:18.904Z,18.85
2023-01-30T05:12:46.307Z,18.42
2023-01-30T05:15:13.929Z,17.92
2023-01-30T05:17:43.707Z,20.85
2023-01-30T05:20:13.868Z,19.05
2023-01-30T05:22:41.075Z,20.05
2023-01-30T05:25:08.488Z,20.13
2023-01-30T05:27:35.772Z,16.20
2023-01-30T05:30:02.923Z,16.80
2023-01-30T05:32:31.113Z,20.65
2023-01-30T05:34:58.359Z,18.85
2023-01-30T05:37:25.288Z,19.13
2023-01-30T05:39:52.571Z,20.90
2023-01-30T05:42:19.845Z,16.40
2023-01-30T05:44:47.102Z,16.80
2023-01-30T05:47:14.344Z,19.67
2023-01-30T05:49:41.557Z,22.60
2023-01-30T05:52:08.749Z,18.50
2023-01-30T05:54:35.710Z,21.33
2023-01-30T05:57:02.810Z,18.52
2023-01-30T05:59:29.990Z,16.63
2023-01-30T06:01:57.171Z,15.85
2023-01-30T06:04:24.526Z,19.13
2023-01-30T06:06:51.783Z,16.30
2023-01-30T06:09:19.004Z,16.80
2023-01-30T06:11:45.853Z,18.23
2023-01-30T06:14:12.744Z,14.20
2023-01-30T06:16:39.966Z,15.68
2023-01-30T06:19:07.180Z,20.00
2023-01-30T06:21:33.926Z,19.77
2023-01-30T06:24:00.764Z,16.08
2023-01-30T06:26:28.000Z,14.15
2023-01-30T06:28:54.785Z,15.07
2023-01-30T06:31:22.080Z,15.43
2023-01-30T06:33:49.458Z,14.70
2023-01-30T06:36:16.698Z,14.07
2023-01-30T06:38:43.930Z,15.13
2023-01-30T06:41:11.606Z,12.35
2023-01-30T06:43:38.813Z,11.80
2023-01-30T06:46:06.347Z,13.45
2023-01-30T06:48:33.613Z,12.73
2023-01-30T06:51:01.163Z,13.98
2023-01-30T06:53:30.777Z,13.63
2023-01-30T06:55:58.693Z,13.27
2023-01-30T06:58:25.934Z,11.75
2023-01-30T07:00:53.367Z,13.48
2023-01-30T07:03:20.464Z,11.70
2023-01-30T07:05:48.328Z,10.65
2023-01-30T07:08:16.498Z,11.45
2023-01-30T07:10:44.470Z,13.02
2023-01-30T07:13:12.239Z,13.98
2023-01-30T07:15:39.755Z,17.10
2023-01-30T07:18:07.023Z,10.63
2023-01-30T07:20:33.998Z,10.68
2023-01-30T07:23:01.373Z,11.45
2023-01-30T07:25:29.058Z,10.68
2023-01-30T07:28:00.857Z,14.25
2023-01-30T07:30:29.574Z,16.20
2023-01-30T07:32:58.717Z,13.45
2023-01-30T07:35:27.542Z,13.18
2023-01-30T07:37:54.348Z,13.57
2023-01-30T07:40:21.884Z,12.32
2023-01-30T07:42:58.592Z,15.52
2023-01-30T07:45:26.138Z,11.75
2023-01-30T07:47:54.075Z,12.10
2023-01-30T07:50:21.110Z,12.32
2023-01-30T07:52:48.398Z,13.38
2023-01-30T07:55:15.916Z,12.35
2023-01-30T07:57:43.274Z,11.80
2023-01-30T08:00:10.913Z,11.68
2023-01-30T08:02:38.117Z,12.73
2023-01-30T08:05:06.324Z,12.63
2023-01-30T08:07:33.732Z,12.73
2023-01-30T08:10:01.001Z,9.77
2023-01-30T08:12:29.155Z,17.42
2023-01-30T08:14:56.427Z,12.23
2023-01-30T08:17:23.665Z,11.82
2023-01-30T08:19:50.963Z,11.77
2023-01-30T08:22:18.503Z,14.77
2023-01-30T08:24:45.826Z,12.43
2023-01-30T08:27:13.081Z,10.07
2023-01-30T08:29:40.272Z,10.45
2023-01-30T08:32:07.516Z,12.68
2023-01-30T08:34:36.000Z,11.13
2023-01-30T08:37:03.372Z,13.52
2023-01-30T08:39:30.591Z,10.82
2023-01-30T08:41:57.821Z,13.55
2023-01-30T08:44:24.610Z,12.82
2023-01-30T08:46:51.828Z,12.52
2023-01-30T08:49:19.087Z,11.88
2023-01-30T08:51:46.439Z,12.00
2023-01-30T08:54:13.917Z,12.75
2023-01-30T08:56:41.858Z,10.98
2023-01-30T08:59:08.735Z,12.05
2023-01-30T09:01:38.125Z,13.23
2023-01-30T09:04:05.601Z,10.50
2023-01-30T09:06:32.916Z,10.95
2023-01-30T09:09:00.785Z,9.55
2023-01-30T09:11:28.485Z,11.13
2023-01-30T09:13:55.723Z,11.02
2023-01-30T09:16:22.970Z,12.23
2023-01-30T09:18:50.302Z,12.55
2023-01-30T09:21:17.193Z,11.50
2023-01-30T09:23:44.802Z,10.88
2023-01-30T09:26:12.160Z,12.73
2023-01-30T09:28:39.552Z,10.00
2023-01-30T09:31:06.937Z,10.45
2023-01-30T09:33:34.352Z,10.93
2023-01-30T09:36:01.730Z,10.07
2023-01-30T09:38:29.074Z,11.55
2023-01-30T09:41:10.989Z,8.73
2023-01-30T09:43:38.179Z,11.35
2023-01-30T09:46:18.347Z,8.45
2023-01-30T09:49:15.604Z,11.18
2023-01-30T09:51:42.832Z,10.75
2023-01-30T09:54:18.554Z,8.00
2023-01-30T09:56:45.329Z,7.38
2023-01-30T09:59:21.635Z,9.30
2023-01-30T10:02:13.897Z,8.48
2023-01-30T10:04:59.978Z,8.63
2023-01-30T10:10:35.353Z,7.93
2023-01-30T10:13:36.568Z,8.05
2023-01-30T10:16:25.501Z,9.05
2023-01-30T10:19:33.592Z,9.02
2023-01-30T10:22:15.035Z,9.95
2023-01-30T10:25:15.616Z,7.32
2023-01-30T10:27:56.822Z,8.68
2023-01-30T10:30:24.159Z,8.40
2023-01-30T10:33:06.489Z,8.73
2023-01-30T10:35:38.400Z,6.57
2023-01-30T10:38:30.290Z,9.80
2023-01-30T10:41:06.460Z,6.80
2023-01-30T10:47:00.416Z,6.97
2023-01-30T10:49:52.328Z,5.57
2023-01-30T10:52:27.141Z,7.32
2023-01-30T10:55:00.921Z,6.30
2023-01-30T10:57:43.530Z,8.27
2023-01-30T11:00:43.001Z,6.72
2023-01-30T11:03:10.314Z,5.28
2023-01-30T11:05:51.955Z,4.88
2023-01-30T11:08:24.782Z,4.85
2023-01-30T11:10:53.022Z,6.05
2023-01-30T11:13:31.309Z,4.95
2023-01-30T11:16:06.936Z,5.25
2023-01-30T11:19:18.248Z,4.15
2023-01-30T11:21:32.086Z,4.53
2023-01-30T11:24:14.819Z,4.10
2023-01-30T11:26:47.920Z,3.70
2023-01-30T11:29:30.015Z,3.38
2023-01-30T11:32:05.824Z,3.15
2023-01-30T11:34:33.126Z,4.65
2023-01-30T11:37:39.502Z,3.60
2023-01-30T11:40:19.286Z,3.50
2023-01-30T11:42:51.513Z,3.42
2023-01-30T11:45:21.251Z,8.65
2023-01-30T11:48:04.539Z,3.40
2023-01-30T11:51:32.155Z,3.67
2023-01-30T11:53:45.425Z,3.35
2023-01-30T11:56:33.732Z,3.47
2023-01-30T11:59:06.860Z,3.65
2023-01-30T12:01:37.023Z,3.22
2023-01-30T12:04:10.780Z,2.88
2023-01-30T12:06:40.776Z,3.47
2023-01-30T12:09:31.788Z,8.73
2023-01-30T12:11:59.327Z,3.90
2023-01-30T12:14:44.407Z,3.63
2023-01-30T12:17:12.259Z,9.27
2023-01-30T12:20:11.527Z,3.22
2023-01-30T12:23:00.313Z,2.90
2023-01-30T12:25:40.073Z,2.58
2023-01-30T12:28:17.810Z,3.03
2023-01-30T12:30:58.099Z,2.33
2023-01-30T12:33:31.017Z,3.25
2023-01-30T12:36:25.323Z,3.08
2023-01-30T12:38:57.064Z,2.28
2023-01-30T12:41:29.703Z,2.75
2023-01-30T12:44:12.132Z,3.17
2023-01-30T12:47:00.980Z,2.60
2023-01-30T12:49:49.043Z,2.30
2023-01-30T12:52:33.823Z,2.08
2023-01-30T12:55:19.754Z,5.07
2023-01-30T12:57:59.045Z,5.55
2023-01-30T13:00:47.725Z,2.20
2023-01-30T13:03:26.414Z,2.38
2023-01-30T13:06:16.294Z,2.35
2023-01-30T13:08:43.543Z,2.20
2023-01-30T13:11:21.969Z,2.30
2023-01-30T13:14:00.140Z,2.03
2023-01-30T13:16:33.165Z,2.22
2023-01-30T13:19:40.476Z,2.70
2023-01-30T13:22:23.843Z,2.55
2023-01-30T13:25:04.048Z,2.92
2023-01-30T13:27:35.774Z,2.50
2023-01-30T13:30:05.741Z,2.58
2023-01-30T13:32:38.553Z,2.60
2023-01-30T13:35:18.430Z,2.13
2023-01-30T13:37:48.300Z,5.40
2023-01-30T13:40:22.162Z,2.10
2023-01-30T13:42:53.038Z,3.08
2023-01-30T13:45:26.922Z,1.92
2023-01-30T13:48:01.977Z,3.55
2023-01-30T13:50:50.289Z,2.60
2023-01-30T13:53:45.204Z,3.05
2023-01-30T13:56:49.529Z,6.60
2023-01-30T13:59:16.973Z,3.03
2023-01-30T14:02:02.853Z,2.35
2023-01-30T14:04:41.843Z,2.08
2023-01-30T14:07:22.792Z,2.58
2023-01-30T14:10:03.034Z,2.65
2023-01-30T14:12:42.293Z,3.30
2023-01-30T14:15:09.551Z,2.97
2023-01-30T14:17:36.553Z,3.15
2023-01-30T14:20:19.991Z,3.35
2023-01-30T14:22:57.323Z,5.00
2023-01-30T14:25:30.296Z,2.70
2023-01-30T14:27:59.868Z,3.63
2023-01-30T14:30:47.805Z,3.97
2023-01-30T14:33:23.768Z,4.93
2023-01-30T14:38:37.475Z,2.92
2023-01-30T14:41:04.662Z,3.28
2023-01-30T14:43:34.522Z,3.42
2023-01-30T14:46:07.468Z,4.78
2023-01-30T14:48:36.935Z,3.35
2023-01-30T14:51:28.746Z,4.53
2023-01-30T14:54:14.416Z,3.33
2023-01-30T14:56:57.020Z,3.55
2023-01-30T14:59:45.499Z,4.05
2023-01-30T15:02:15.297Z,3.13
2023-01-30T15:04:49.710Z,5.10
2023-01-30T15:07:25.440Z,3.33
2023-01-30T15:10:06.648Z,5.05
2023-01-30T15:12:57.811Z,5.55
2023-01-30T15:15:45.228Z,4.18
2023-01-30T15:18:47.599Z,4.75
2023-01-30T15:21:37.482Z,4.47
2023-01-30T15:24:30.609Z,3.33
2023-01-30T15:27:32.052Z,3.45
2023-01-30T15:30:47.445Z,3.20
2023-01-30T15:33:29.468Z,4.50
2023-01-30T15:35:57.746Z,5.13
2023-01-30T15:38:31.267Z,4.07
2023-01-30T15:41:03.418Z,4.65
2023-01-30T15:43:30.616Z,5.22
2023-01-30T15:46:25.484Z,6.90
2023-01-30T15:49:07.119Z,4.65
2023-01-30T15:51:34.974Z,6.43
2023-01-30T15:54:08.775Z,3.25
2023-01-30T15:56:36.085Z,4.32
2023-01-30T15:59:03.477Z,4.95
2023-01-30T16:01:30.966Z,4.70
2023-01-30T16:04:00.272Z,10.85
2023-01-30T16:06:36.152Z,8.77
2023-01-30T16:09:20.357Z,4.43
2023-01-30T16:11:47.641Z,5.93
2023-01-30T16:14:16.620Z,10.80
2023-01-30T16:17:03.866Z,5.40
2023-01-30T16:19:37.948Z,4.72
2023-01-30T16:22:11.428Z,5.25
2023-01-30T16:24:38.512Z,6.10
2023-01-30T16:27:08.071Z,6.90
2023-01-30T16:29:51.202Z,13.77
2023-01-30T16:32:19.704Z,5.00
2023-01-30T16:34:47.013Z,5.68
2023-01-30T16:37:16.684Z,7.05
2023-01-30T16:39:46.352Z,8.55
2023-01-30T16:42:39.572Z,4.63
2023-01-30T16:45:12.454Z,5.28
2023-01-30T16:47:40.340Z,8.70
2023-01-30T16:50:20.263Z,3.03
2023-01-30T16:52:51.926Z,4.95
2023-01-30T16:55:23.151Z,6.00
2023-01-30T16:58:00.763Z,6.20
2023-01-30T17:00:40.135Z,4.40
2023-01-30T17:03:19.998Z,5.50
2023-01-30T17:05:49.446Z,4.93
2023-01-30T17:08:31.647Z,4.82
2023-01-30T17:11:00.011Z,4.75
2023-01-30T17:13:48.164Z,5.10
2023-01-30T17:16:24.289Z,8.43
2023-01-30T17:21:20.305Z,5.93
2023-01-30T17:23:52.505Z,7.18
2023-01-30T17:26:20.197Z,4.40
2023-01-30T17:28:47.674Z,8.15
2023-01-30T17:31:17.096Z,3.72
2023-01-30T17:33:44.555Z,4.03
2023-01-30T17:36:25.138Z,7.40
2023-01-30T17:38:52.717Z,5.03
2023-01-30T17:41:22.188Z,5.05
2023-01-30T17:43:49.918Z,4.75
2023-01-30T17:46:18.253Z,8.20
2023-01-30T17:48:45.597Z,6.43
2023-01-30T17:51:14.363Z,9.23
2023-01-30T17:53:41.936Z,7.65
2023-01-30T17:56:27.234Z,6.15
2023-01-30T17:58:55.100Z,7.75
2023-01-30T18:01:23.383Z,10.85
2023-01-30T18:03:51.872Z,9.63
2023-01-30T18:06:19.633Z,8.15
2023-01-30T18:08:46.884Z,7.78
2023-01-30T18:11:14.934Z,11.20
2023-01-30T18:13:42.734Z,6.65
2023-01-30T18:16:20.623Z,9.50
2023-01-30T18:18:47.919Z,6.13
2023-01-30T18:21:15.171Z,5.57
2023-01-30T18:23:42.487Z,5.40
2023-01-30T18:26:12.570Z,7.25
2023-01-30T18:28:40.312Z,7.63
2023-01-30T18:31:07.688Z,5.75
2023-01-30T18:33:35.043Z,6.68
2023-01-30T18:36:06.133Z,8.27
2023-01-30T18:38:33.493Z,6.95
2023-01-30T18:41:10.546Z,5.50
2023-01-30T18:43:38.028Z,7.05
2023-01-30T18:46:16.768Z,8.52
2023-01-30T18:48:46.675Z,8.45
2023-01-30T18:51:32.922Z,9.32
2023-01-30T18:54:01.974Z,10.18
2023-01-30T18:56:31.804Z,7.75
2023-01-30T18:59:03.923Z,7.32
2023-01-30T19:01:37.549Z,6.72
2023-01-30T19:04:07.752Z,11.35
2023-01-30T19:06:37.343Z,9.38
2023-01-30T19:09:04.875Z,6.78
2023-01-30T19:11:50.853Z,5.82
2023-01-30T19:14:18.081Z,7.00
2023-01-30T19:16:45.327Z,5.60
2023-01-30T19:19:12.724Z,7.65
2023-01-30T19:21:40.025Z,6.55
2023-01-30T19:24:08.429Z,9.70
2023-01-30T19:26:35.863Z,6.25
2023-01-30T19:29:03.203Z,4.03
2023-01-30T19:31:30.631Z,8.43
2023-01-30T19:34:00.843Z,8.77
2023-01-30T19:36:34.310Z,9.82
2023-01-30T19:39:03.652Z,9.82
2023-01-30T19:41:33.353Z,11.38
2023-01-30T19:44:01.926Z,9.20
2023-01-30T19:46:29.330Z,10.88
2023-01-30T19:48:56.782Z,6.20
2023-01-30T19:51:24.092Z,5.43
2023-01-30T19:54:02.494Z,6.82
2023-01-30T19:56:30.371Z,5.60
2023-01-30T19:58:58.869Z,7.45
2023-01-30T20:01:29.655Z,7.70
2023-01-30T20:03:57.136Z,4.93
2023-01-30T20:06:26.672Z,5.30
2023-01-30T20:08:56.247Z,8.93
2023-01-30T20:11:23.518Z,7.22
2023-01-30T20:13:51.537Z,5.03
2023-01-30T20:16:21.120Z,7.97
2023-01-30T20:18:53.992Z,6.60
2023-01-30T20:21:21.905Z,8.45
2023-01-30T20:23:49.200Z,8.88
2023-01-30T20:26:18.532Z,9.77
2023-01-30T20:28:45.849Z,7.20
2023-01-30T20:31:15.565Z,6.38
2023-01-30T20:33:43.044Z,7.63
2023-01-30T20:36:12.469Z,7.25
2023-01-30T20:38:41.667Z,8.73
2023-01-30T20:41:14.813Z,12.15
2023-01-30T20:43:46.600Z,7.38
2023-01-30T20:46:22.102Z,7.85
2023-01-30T20:48:49.585Z,10.02
2023-01-30T20:51:19.159Z,15.35
2023-01-30T20:53:48.292Z,6.53
2023-01-30T20:56:15.445Z,13.25
2023-01-30T20:58:42.656Z,7.97
2023-01-30T21:01:09.995Z,10.60
2023-01-30T21:03:37.511Z,5.53
2023-01-30T21:06:05.355Z,9.68
2023-01-30T21:08:32.481Z,4.85
2023-01-30T21:11:25.663Z,8.15
2023-01-30T21:13:52.665Z,5.00
2023-01-30T21:16:22.700Z,9.60
2023-01-30T21:18:51.687Z,12.10
2023-01-30T21:21:27.745Z,7.15
2023-01-30T21:23:57.781Z,10.98
2023-01-30T21:26:26.730Z,7.47
2023-01-30T21:28:55.278Z,6.70
2023-01-30T21:31:27.797Z,9.48
2023-01-30T21:33:58.933Z,8.82
2023-01-30T21:36:27.410Z,5.18
2023-01-30T21:39:13.298Z,9.02
2023-01-30T21:41:54.861Z,11.82
2023-01-30T21:44:26.597Z,6.93
2023-01-30T21:46:53.953Z,11.10
2023-01-30T21:49:21.075Z,7.32
2023-01-30T21:51:49.108Z,7.97
2023-01-30T21:54:17.268Z,10.15
2023-01-30T21:56:45.397Z,7.38
2023-01-30T21:59:12.815Z,5.90
2023-01-30T22:01:40.486Z,5.97
2023-01-30T22:04:11.512Z,6.32
2023-01-30T22:06:39.061Z,6.05
2023-01-30T22:09:07.286Z,8.55
2023-01-30T22:11:36.408Z,7.72
2023-01-30T22:14:03.858Z,9.65
2023-01-30T22:16:33.493Z,10.68
2023-01-30T22:19:03.599Z,7.20
2023-01-30T22:21:33.836Z,9.45
2023-01-30T22:24:02.103Z,6.15
2023-01-30T22:26:29.439Z,11.68
2023-01-30T22:28:58.357Z,7.97
2023-01-30T22:31:27.234Z,5.72
2023-01-30T22:33:56.516Z,10.68
2023-01-30T22:36:25.575Z,11.30
2023-01-30T22:38:53.060Z,11.52
2023-01-30T22:41:22.398Z,9.30
2023-01-30T22:43:55.397Z,13.50
2023-01-30T22:46:25.139Z,11.35
2023-01-30T22:48:52.396Z,9.48
2023-01-30T22:51:19.720Z,7.97
2023-01-30T22:53:49.279Z,8.93
2023-01-30T22:56:18.592Z,7.63
2023-01-30T22:58:46.843Z,7.80
2023-01-30T23:01:15.586Z,8.23
2023-01-30T23:03:44.035Z,10.00
2023-01-30T23:06:13.938Z,12.05
2023-01-30T23:08:43.344Z,9.18
2023-01-30T23:11:22.732Z,10.63
2023-01-30T23:13:51.725Z,12.15
2023-01-30T23:16:22.627Z,12.52
2023-01-30T23:18:56.312Z,8.63
2023-01-30T23:21:27.197Z,12.15
2023-01-30T23:23:57.241Z,14.85
2023-01-30T23:26:26.415Z,8.88
2023-01-30T23:28:53.858Z,16.00
2023-01-30T23:31:23.576Z,9.73
2023-01-30T23:33:55.476Z,10.88
2023-01-30T23:36:22.770Z,7.82
2023-01-30T23:38:51.713Z,11.10
2023-01-30T23:41:24.280Z,10.48
2023-01-30T23:43:51.990Z,13.98
2023-01-30T23:46:20.315Z,9.85
2023-01-30T23:48:52.874Z,9.18
2023-01-30T23:51:21.642Z,9.75
2023-01-30T23:53:48.853Z,11.90
2023-01-30T23:56:16.304Z,10.40
2023-01-30T23:58:44.574Z,12.00
